sensor_id;sensor_type;location;lat;lon;timestamp;P1;durP1;ratioP1;P2;durP2;ratioP2
46777;SDS011;32536;47.128;8.746;2023-12-20T00:02:08;2.60;;;1.70;;
46777;SDS011;32536;47.128;8.746;2023-12-20T00:04:35;3.30;;;1.95;;
46777;SDS011;32536;47.128;8.746;2023-12-20T00:07:02;4.30;;;1.88;;
46777;SDS011;32536;47.128;8.746;2023-12-20T00:09:29;2.80;;;1.65;;
46777;SDS011;32536;47.128;8.746;2023-12-20T00:11:56;2.75;;;1.50;;
46777;SDS011;32536;47.128;8.746;2023-12-20T00:14:22;3.50;;;1.65;;
46777;SDS011;32536;47.128;8.746;2023-12-20T00:16:49;5.90;;;3.03;;
46777;SDS011;32536;47.128;8.746;2023-12-20T00:19:16;4.35;;;2.05;;
46777;SDS011;32536;47.128;8.746;2023-12-20T00:21:43;4.82;;;2.83;;
46777;SDS011;32536;47.128;8.746;2023-12-20T00:24:09;3.10;;;1.80;;
46777;SDS011;32536;47.128;8.746;2023-12-20T00:26:36;3.00;;;1.73;;
46777;SDS011;32536;47.128;8.746;2023-12-20T00:29:03;2.55;;;1.63;;
46777;SDS011;32536;47.128;8.746;2023-12-20T00:31:30;2.72;;;1.50;;
46777;SDS011;32536;47.128;8.746;2023-12-20T00:33:56;2.63;;;1.60;;
46777;SDS011;32536;47.128;8.746;2023-12-20T00:36:23;2.20;;;1.30;;
46777;SDS011;32536;47.128;8.746;2023-12-20T00:38:50;3.95;;;2.22;;
46777;SDS011;32536;47.128;8.746;2023-12-20T00:41:17;3.13;;;1.50;;
46777;SDS011;32536;47.128;8.746;2023-12-20T00:43:44;3.35;;;1.85;;
46777;SDS011;32536;47.128;8.746;2023-12-20T00:46:10;5.63;;;3.47;;
46777;SDS011;32536;47.128;8.746;2023-12-20T00:48:37;5.18;;;2.58;;
46777;SDS011;32536;47.128;8.746;2023-12-20T00:51:04;4.93;;;2.42;;
46777;SDS011;32536;47.128;8.746;2023-12-20T00:53:31;7.22;;;3.28;;
46777;SDS011;32536;47.128;8.746;2023-12-20T00:55:57;6.55;;;3.28;;
46777;SDS011;32536;47.128;8.746;2023-12-20T00:58:24;5.90;;;3.25;;
46777;SDS011;32536;47.128;8.746;2023-12-20T01:00:52;6.90;;;2.95;;
46777;SDS011;32536;47.128;8.746;2023-12-20T01:03:19;5.85;;;3.30;;
46777;SDS011;32536;47.128;8.746;2023-12-20T01:05:46;4.80;;;2.70;;
46777;SDS011;32536;47.128;8.746;2023-12-20T01:08:12;3.92;;;2.05;;
46777;SDS011;32536;47.128;8.746;2023-12-20T01:10:39;3.70;;;2.13;;
46777;SDS011;32536;47.128;8.746;2023-12-20T01:13:06;4.80;;;2.83;;
46777;SDS011;32536;47.128;8.746;2023-12-20T01:15:34;4.32;;;1.98;;
46777;SDS011;32536;47.128;8.746;2023-12-20T01:18:01;3.90;;;2.08;;
46777;SDS011;32536;47.128;8.746;2023-12-20T01:20:28;5.45;;;2.65;;
46777;SDS011;32536;47.128;8.746;2023-12-20T01:22:54;5.85;;;2.78;;
46777;SDS011;32536;47.128;8.746;2023-12-20T01:25:21;8.07;;;4.55;;
46777;SDS011;32536;47.128;8.746;2023-12-20T01:27:48;5.85;;;3.58;;
46777;SDS011;32536;47.128;8.746;2023-12-20T01:30:15;5.43;;;3.35;;
46777;SDS011;32536;47.128;8.746;2023-12-20T01:32:42;5.93;;;3.30;;
46777;SDS011;32536;47.128;8.746;2023-12-20T01:35:09;6.32;;;4.10;;
46777;SDS011;32536;47.128;8.746;2023-12-20T01:37:37;6.80;;;3.92;;
46777;SDS011;32536;47.128;8.746;2023-12-20T01:40:04;5.53;;;4.32;;
46777;SDS011;32536;47.128;8.746;2023-12-20T01:42:31;6.03;;;4.22;;
46777;SDS011;32536;47.128;8.746;2023-12-20T01:44:58;6.45;;;4.05;;
46777;SDS011;32536;47.128;8.746;2023-12-20T01:47:25;5.63;;;3.20;;
46777;SDS011;32536;47.128;8.746;2023-12-20T01:49:52;5.00;;;3.45;;
46777;SDS011;32536;47.128;8.746;2023-12-20T01:52:20;7.25;;;3.05;;
46777;SDS011;32536;47.128;8.746;2023-12-20T01:54:47;4.55;;;3.08;;
46777;SDS011;32536;47.128;8.746;2023-12-20T01:57:14;5.78;;;3.33;;
46777;SDS011;32536;47.128;8.746;2023-12-20T01:59:41;5.03;;;2.78;;
46777;SDS011;32536;47.128;8.746;2023-12-20T02:02:08;4.15;;;2.13;;
46777;SDS011;32536;47.128;8.746;2023-12-20T02:04:38;3.28;;;1.88;;
46777;SDS011;32536;47.128;8.746;2023-12-20T02:07:04;3.25;;;2.03;;
46777;SDS011;32536;47.128;8.746;2023-12-20T02:09:32;2.63;;;1.35;;
46777;SDS011;32536;47.128;8.746;2023-12-20T02:11:59;1.65;;;0.93;;
46777;SDS011;32536;47.128;8.746;2023-12-20T02:14:26;2.95;;;1.55;;
46777;SDS011;32536;47.128;8.746;2023-12-20T02:16:53;2.08;;;1.73;;
46777;SDS011;32536;47.128;8.746;2023-12-20T02:19:20;2.10;;;0.93;;
46777;SDS011;32536;47.128;8.746;2023-12-20T02:21:47;1.58;;;1.08;;
46777;SDS011;32536;47.128;8.746;2023-12-20T02:24:14;1.83;;;1.13;;
46777;SDS011;32536;47.128;8.746;2023-12-20T02:26:40;3.35;;;1.60;;
46777;SDS011;32536;47.128;8.746;2023-12-20T02:29:07;2.33;;;1.65;;
46777;SDS011;32536;47.128;8.746;2023-12-20T02:31:34;2.55;;;1.20;;
46777;SDS011;32536;47.128;8.746;2023-12-20T02:34:01;2.22;;;2.03;;
46777;SDS011;32536;47.128;8.746;2023-12-20T02:36:28;1.58;;;0.95;;
46777;SDS011;32536;47.128;8.746;2023-12-20T02:38:54;2.00;;;1.17;;
46777;SDS011;32536;47.128;8.746;2023-12-20T02:41:21;1.65;;;1.17;;
46777;SDS011;32536;47.128;8.746;2023-12-20T02:43:48;2.15;;;1.83;;
46777;SDS011;32536;47.128;8.746;2023-12-20T02:46:15;1.50;;;0.93;;
46777;SDS011;32536;47.128;8.746;2023-12-20T02:48:42;1.50;;;0.80;;
46777;SDS011;32536;47.128;8.746;2023-12-20T02:51:09;1.80;;;1.17;;
46777;SDS011;32536;47.128;8.746;2023-12-20T02:53:36;2.83;;;1.42;;
46777;SDS011;32536;47.128;8.746;2023-12-20T02:56:03;2.97;;;1.52;;
46777;SDS011;32536;47.128;8.746;2023-12-20T02:58:30;2.55;;;1.15;;
46777;SDS011;32536;47.128;8.746;2023-12-20T03:00:57;1.88;;;1.25;;
46777;SDS011;32536;47.128;8.746;2023-12-20T03:03:23;2.22;;;1.30;;
46777;SDS011;32536;47.128;8.746;2023-12-20T03:05:50;2.22;;;1.42;;
46777;SDS011;32536;47.128;8.746;2023-12-20T03:08:18;2.42;;;1.35;;
46777;SDS011;32536;47.128;8.746;2023-12-20T03:10:44;2.03;;;0.98;;
46777;SDS011;32536;47.128;8.746;2023-12-20T03:13:11;3.72;;;2.22;;
46777;SDS011;32536;47.128;8.746;2023-12-20T03:15:38;1.92;;;1.15;;
46777;SDS011;32536;47.128;8.746;2023-12-20T03:18:04;2.67;;;1.50;;
46777;SDS011;32536;47.128;8.746;2023-12-20T03:20:31;1.88;;;1.25;;
46777;SDS011;32536;47.128;8.746;2023-12-20T03:23:01;2.75;;;1.63;;
46777;SDS011;32536;47.128;8.746;2023-12-20T03:25:28;1.88;;;1.00;;
46777;SDS011;32536;47.128;8.746;2023-12-20T03:27:55;2.70;;;1.40;;
46777;SDS011;32536;47.128;8.746;2023-12-20T03:30:22;2.70;;;1.52;;
46777;SDS011;32536;47.128;8.746;2023-12-20T03:32:48;2.78;;;1.60;;
46777;SDS011;32536;47.128;8.746;2023-12-20T03:35:16;3.50;;;2.08;;
46777;SDS011;32536;47.128;8.746;2023-12-20T03:37:42;3.33;;;2.30;;
46777;SDS011;32536;47.128;8.746;2023-12-20T03:40:09;2.55;;;1.33;;
46777;SDS011;32536;47.128;8.746;2023-12-20T03:42:36;3.35;;;1.30;;
46777;SDS011;32536;47.128;8.746;2023-12-20T03:45:03;3.50;;;1.52;;
46777;SDS011;32536;47.128;8.746;2023-12-20T03:47:30;4.82;;;3.08;;
46777;SDS011;32536;47.128;8.746;2023-12-20T03:49:57;4.47;;;2.03;;
46777;SDS011;32536;47.128;8.746;2023-12-20T03:52:24;5.28;;;3.10;;
46777;SDS011;32536;47.128;8.746;2023-12-20T03:54:50;4.93;;;2.90;;
46777;SDS011;32536;47.128;8.746;2023-12-20T03:57:17;4.22;;;2.35;;
46777;SDS011;32536;47.128;8.746;2023-12-20T03:59:44;6.72;;;3.28;;
46777;SDS011;32536;47.128;8.746;2023-12-20T04:02:10;5.60;;;2.97;;
46777;SDS011;32536;47.128;8.746;2023-12-20T04:04:37;4.10;;;2.85;;
46777;SDS011;32536;47.128;8.746;2023-12-20T04:07:04;3.63;;;2.05;;
46777;SDS011;32536;47.128;8.746;2023-12-20T04:09:31;4.30;;;2.42;;
46777;SDS011;32536;47.128;8.746;2023-12-20T04:11:57;3.17;;;1.95;;
46777;SDS011;32536;47.128;8.746;2023-12-20T04:14:24;4.72;;;2.15;;
46777;SDS011;32536;47.128;8.746;2023-12-20T04:17:00;3.22;;;1.70;;
46777;SDS011;32536;47.128;8.746;2023-12-20T04:19:27;2.60;;;1.63;;
46777;SDS011;32536;47.128;8.746;2023-12-20T04:21:53;3.63;;;2.35;;
46777;SDS011;32536;47.128;8.746;2023-12-20T04:24:20;4.38;;;2.03;;
46777;SDS011;32536;47.128;8.746;2023-12-20T04:26:48;3.65;;;1.90;;
46777;SDS011;32536;47.128;8.746;2023-12-20T04:29:15;2.75;;;1.40;;
46777;SDS011;32536;47.128;8.746;2023-12-20T04:31:41;3.75;;;1.60;;
46777;SDS011;32536;47.128;8.746;2023-12-20T04:34:08;2.38;;;1.63;;
46777;SDS011;32536;47.128;8.746;2023-12-20T04:36:35;3.28;;;1.75;;
46777;SDS011;32536;47.128;8.746;2023-12-20T04:39:02;3.55;;;1.83;;
46777;SDS011;32536;47.128;8.746;2023-12-20T04:41:28;3.72;;;2.15;;
46777;SDS011;32536;47.128;8.746;2023-12-20T04:43:55;3.28;;;1.77;;
46777;SDS011;32536;47.128;8.746;2023-12-20T04:46:22;3.63;;;2.25;;
46777;SDS011;32536;47.128;8.746;2023-12-20T04:48:49;3.25;;;1.75;;
46777;SDS011;32536;47.128;8.746;2023-12-20T04:51:15;3.45;;;1.88;;
46777;SDS011;32536;47.128;8.746;2023-12-20T04:53:42;4.18;;;2.97;;
46777;SDS011;32536;47.128;8.746;2023-12-20T04:56:09;3.83;;;2.28;;
46777;SDS011;32536;47.128;8.746;2023-12-20T04:58:36;3.25;;;1.75;;
46777;SDS011;32536;47.128;8.746;2023-12-20T05:01:03;4.70;;;2.83;;
46777;SDS011;32536;47.128;8.746;2023-12-20T05:03:32;3.25;;;1.80;;
46777;SDS011;32536;47.128;8.746;2023-12-20T05:05:59;3.15;;;1.73;;
46777;SDS011;32536;47.128;8.746;2023-12-20T05:08:25;4.45;;;2.03;;
46777;SDS011;32536;47.128;8.746;2023-12-20T05:10:56;5.47;;;4.15;;
46777;SDS011;32536;47.128;8.746;2023-12-20T05:13:23;2.95;;;1.92;;
46777;SDS011;32536;47.128;8.746;2023-12-20T05:15:50;4.18;;;2.67;;
46777;SDS011;32536;47.128;8.746;2023-12-20T05:18:17;4.35;;;1.77;;
46777;SDS011;32536;47.128;8.746;2023-12-20T05:20:43;3.42;;;2.38;;
46777;SDS011;32536;47.128;8.746;2023-12-20T05:23:11;3.15;;;2.13;;
46777;SDS011;32536;47.128;8.746;2023-12-20T05:25:39;2.67;;;1.70;;
46777;SDS011;32536;47.128;8.746;2023-12-20T05:28:06;2.95;;;1.98;;
46777;SDS011;32536;47.128;8.746;2023-12-20T05:30:32;3.75;;;1.95;;
46777;SDS011;32536;47.128;8.746;2023-12-20T05:32:59;2.70;;;1.75;;
46777;SDS011;32536;47.128;8.746;2023-12-20T05:35:26;2.65;;;2.03;;
46777;SDS011;32536;47.128;8.746;2023-12-20T05:37:53;2.25;;;1.13;;
46777;SDS011;32536;47.128;8.746;2023-12-20T05:40:20;2.75;;;1.52;;
46777;SDS011;32536;47.128;8.746;2023-12-20T05:42:46;2.05;;;1.38;;
46777;SDS011;32536;47.128;8.746;2023-12-20T05:45:14;2.08;;;1.48;;
46777;SDS011;32536;47.128;8.746;2023-12-20T05:47:41;1.58;;;0.93;;
46777;SDS011;32536;47.128;8.746;2023-12-20T05:50:08;2.65;;;1.60;;
46777;SDS011;32536;47.128;8.746;2023-12-20T05:52:35;2.67;;;1.25;;
46777;SDS011;32536;47.128;8.746;2023-12-20T05:55:02;2.38;;;1.77;;
46777;SDS011;32536;47.128;8.746;2023-12-20T05:57:29;1.55;;;1.10;;
46777;SDS011;32536;47.128;8.746;2023-12-20T05:59:56;1.98;;;1.77;;
46777;SDS011;32536;47.128;8.746;2023-12-20T06:02:23;1.67;;;1.00;;
46777;SDS011;32536;47.128;8.746;2023-12-20T06:04:50;1.15;;;0.88;;
46777;SDS011;32536;47.128;8.746;2023-12-20T06:07:17;1.23;;;0.95;;
46777;SDS011;32536;47.128;8.746;2023-12-20T06:09:43;1.80;;;1.35;;
46777;SDS011;32536;47.128;8.746;2023-12-20T06:12:10;1.38;;;1.27;;
46777;SDS011;32536;47.128;8.746;2023-12-20T06:14:37;0.93;;;0.77;;
46777;SDS011;32536;47.128;8.746;2023-12-20T06:17:06;1.48;;;1.33;;
46777;SDS011;32536;47.128;8.746;2023-12-20T06:19:33;1.23;;;0.98;;
46777;SDS011;32536;47.128;8.746;2023-12-20T06:22:00;1.13;;;0.90;;
46777;SDS011;32536;47.128;8.746;2023-12-20T06:24:27;1.63;;;1.13;;
46777;SDS011;32536;47.128;8.746;2023-12-20T06:26:54;1.50;;;1.10;;
46777;SDS011;32536;47.128;8.746;2023-12-20T06:29:21;1.17;;;0.80;;
46777;SDS011;32536;47.128;8.746;2023-12-20T06:31:48;1.23;;;1.02;;
46777;SDS011;32536;47.128;8.746;2023-12-20T06:34:14;2.20;;;1.50;;
46777;SDS011;32536;47.128;8.746;2023-12-20T06:36:41;0.80;;;0.60;;
46777;SDS011;32536;47.128;8.746;2023-12-20T06:39:08;1.13;;;1.02;;
46777;SDS011;32536;47.128;8.746;2023-12-20T06:41:38;1.48;;;1.38;;
46777;SDS011;32536;47.128;8.746;2023-12-20T06:44:05;1.00;;;0.80;;
46777;SDS011;32536;47.128;8.746;2023-12-20T06:46:32;1.25;;;0.80;;
46777;SDS011;32536;47.128;8.746;2023-12-20T06:48:58;1.38;;;1.27;;
46777;SDS011;32536;47.128;8.746;2023-12-20T06:51:25;1.30;;;0.95;;
46777;SDS011;32536;47.128;8.746;2023-12-20T06:53:53;1.50;;;1.33;;
46777;SDS011;32536;47.128;8.746;2023-12-20T06:56:20;2.20;;;2.00;;
46777;SDS011;32536;47.128;8.746;2023-12-20T06:58:47;1.10;;;0.93;;
46777;SDS011;32536;47.128;8.746;2023-12-20T07:01:14;1.38;;;0.98;;
46777;SDS011;32536;47.128;8.746;2023-12-20T07:03:42;1.33;;;1.02;;
46777;SDS011;32536;47.128;8.746;2023-12-20T07:06:09;1.25;;;0.95;;
46777;SDS011;32536;47.128;8.746;2023-12-20T07:08:36;2.58;;;1.90;;
46777;SDS011;32536;47.128;8.746;2023-12-20T07:11:02;1.77;;;1.13;;
46777;SDS011;32536;47.128;8.746;2023-12-20T07:13:29;3.17;;;1.98;;
46777;SDS011;32536;47.128;8.746;2023-12-20T07:15:56;2.53;;;1.60;;
46777;SDS011;32536;47.128;8.746;2023-12-20T07:18:23;2.88;;;2.63;;
46777;SDS011;32536;47.128;8.746;2023-12-20T07:20:50;1.50;;;1.23;;
46777;SDS011;32536;47.128;8.746;2023-12-20T07:23:17;1.88;;;1.30;;
46777;SDS011;32536;47.128;8.746;2023-12-20T07:25:45;1.65;;;1.35;;
46777;SDS011;32536;47.128;8.746;2023-12-20T07:28:12;1.15;;;1.05;;
46777;SDS011;32536;47.128;8.746;2023-12-20T07:30:39;1.15;;;0.88;;
46777;SDS011;32536;47.128;8.746;2023-12-20T07:33:06;1.30;;;1.10;;
46777;SDS011;32536;47.128;8.746;2023-12-20T07:35:34;2.30;;;1.77;;
46777;SDS011;32536;47.128;8.746;2023-12-20T07:38:01;1.35;;;1.00;;
46777;SDS011;32536;47.128;8.746;2023-12-20T07:40:28;1.00;;;0.90;;
46777;SDS011;32536;47.128;8.746;2023-12-20T07:42:54;2.17;;;1.08;;
46777;SDS011;32536;47.128;8.746;2023-12-20T07:45:21;2.55;;;1.45;;
46777;SDS011;32536;47.128;8.746;2023-12-20T07:47:48;2.15;;;1.40;;
46777;SDS011;32536;47.128;8.746;2023-12-20T07:50:15;2.22;;;1.50;;
46777;SDS011;32536;47.128;8.746;2023-12-20T07:52:42;1.30;;;0.82;;
46777;SDS011;32536;47.128;8.746;2023-12-20T07:55:09;1.63;;;1.52;;
46777;SDS011;32536;47.128;8.746;2023-12-20T07:57:36;1.55;;;1.45;;
46777;SDS011;32536;47.128;8.746;2023-12-20T08:00:03;1.60;;;1.00;;
46777;SDS011;32536;47.128;8.746;2023-12-20T08:02:31;1.27;;;1.13;;
46777;SDS011;32536;47.128;8.746;2023-12-20T08:04:57;1.10;;;0.93;;
46777;SDS011;32536;47.128;8.746;2023-12-20T08:07:24;1.45;;;1.15;;
46777;SDS011;32536;47.128;8.746;2023-12-20T08:09:51;1.65;;;1.15;;
46777;SDS011;32536;47.128;8.746;2023-12-20T08:12:18;1.98;;;1.05;;
46777;SDS011;32536;47.128;8.746;2023-12-20T08:14:45;1.35;;;1.13;;
46777;SDS011;32536;47.128;8.746;2023-12-20T08:17:12;1.23;;;1.05;;
46777;SDS011;32536;47.128;8.746;2023-12-20T08:19:41;1.27;;;1.17;;
46777;SDS011;32536;47.128;8.746;2023-12-20T08:22:08;1.58;;;0.98;;
46777;SDS011;32536;47.128;8.746;2023-12-20T08:24:35;1.38;;;1.00;;
46777;SDS011;32536;47.128;8.746;2023-12-20T08:27:02;1.30;;;1.13;;
46777;SDS011;32536;47.128;8.746;2023-12-20T08:29:29;0.80;;;0.60;;
46777;SDS011;32536;47.128;8.746;2023-12-20T08:31:56;1.08;;;0.77;;
46777;SDS011;32536;47.128;8.746;2023-12-20T08:34:25;0.95;;;0.77;;
46777;SDS011;32536;47.128;8.746;2023-12-20T08:36:51;1.23;;;1.13;;
46777;SDS011;32536;47.128;8.746;2023-12-20T08:39:19;1.48;;;0.95;;
46777;SDS011;32536;47.128;8.746;2023-12-20T08:41:46;1.15;;;0.98;;
46777;SDS011;32536;47.128;8.746;2023-12-20T08:44:12;1.02;;;0.93;;
46777;SDS011;32536;47.128;8.746;2023-12-20T08:46:39;1.27;;;0.93;;
46777;SDS011;32536;47.128;8.746;2023-12-20T08:49:06;1.25;;;1.00;;
46777;SDS011;32536;47.128;8.746;2023-12-20T08:51:34;1.73;;;0.90;;
46777;SDS011;32536;47.128;8.746;2023-12-20T08:54:01;1.10;;;0.82;;
46777;SDS011;32536;47.128;8.746;2023-12-20T08:56:29;1.27;;;1.10;;
46777;SDS011;32536;47.128;8.746;2023-12-20T08:58:56;2.20;;;1.15;;
46777;SDS011;32536;47.128;8.746;2023-12-20T09:01:22;1.48;;;1.30;;
46777;SDS011;32536;47.128;8.746;2023-12-20T09:03:49;1.60;;;1.05;;
46777;SDS011;32536;47.128;8.746;2023-12-20T09:06:16;2.47;;;2.28;;
46777;SDS011;32536;47.128;8.746;2023-12-20T09:08:42;1.45;;;1.08;;
46777;SDS011;32536;47.128;8.746;2023-12-20T09:11:09;1.20;;;1.10;;
46777;SDS011;32536;47.128;8.746;2023-12-20T09:13:36;1.02;;;0.93;;
46777;SDS011;32536;47.128;8.746;2023-12-20T09:16:03;1.00;;;0.80;;
46777;SDS011;32536;47.128;8.746;2023-12-20T09:18:30;1.25;;;1.10;;
46777;SDS011;32536;47.128;8.746;2023-12-20T09:20:57;1.20;;;0.88;;
46777;SDS011;32536;47.128;8.746;2023-12-20T09:23:24;1.63;;;1.02;;
46777;SDS011;32536;47.128;8.746;2023-12-20T09:25:50;1.27;;;0.73;;
46777;SDS011;32536;47.128;8.746;2023-12-20T09:28:17;1.23;;;0.95;;
46777;SDS011;32536;47.128;8.746;2023-12-20T09:30:44;1.20;;;1.08;;
46777;SDS011;32536;47.128;8.746;2023-12-20T09:33:12;1.52;;;1.42;;
46777;SDS011;32536;47.128;8.746;2023-12-20T09:35:38;1.27;;;0.98;;
46777;SDS011;32536;47.128;8.746;2023-12-20T09:38:05;1.58;;;1.13;;
46777;SDS011;32536;47.128;8.746;2023-12-20T09:40:32;1.33;;;0.82;;
46777;SDS011;32536;47.128;8.746;2023-12-20T09:43:10;1.73;;;0.77;;
46777;SDS011;32536;47.128;8.746;2023-12-20T09:45:41;1.83;;;1.17;;
46777;SDS011;32536;47.128;8.746;2023-12-20T09:48:12;1.67;;;1.13;;
46777;SDS011;32536;47.128;8.746;2023-12-20T09:50:40;2.20;;;1.10;;
46777;SDS011;32536;47.128;8.746;2023-12-20T09:53:10;1.92;;;1.20;;
46777;SDS011;32536;47.128;8.746;2023-12-20T09:55:41;1.35;;;1.23;;
46777;SDS011;32536;47.128;8.746;2023-12-20T09:58:08;1.48;;;1.20;;
46777;SDS011;32536;47.128;8.746;2023-12-20T10:00:35;2.40;;;2.08;;
46777;SDS011;32536;47.128;8.746;2023-12-20T10:03:02;2.65;;;2.45;;
46777;SDS011;32536;47.128;8.746;2023-12-20T10:05:33;1.40;;;1.00;;
46777;SDS011;32536;47.128;8.746;2023-12-20T10:08:01;1.30;;;0.88;;
46777;SDS011;32536;47.128;8.746;2023-12-20T10:10:28;1.88;;;1.15;;
46777;SDS011;32536;47.128;8.746;2023-12-20T10:13:05;1.65;;;1.30;;
46777;SDS011;32536;47.128;8.746;2023-12-20T10:15:41;0.75;;;0.70;;
46777;SDS011;32536;47.128;8.746;2023-12-20T10:18:08;0.88;;;0.73;;
46777;SDS011;32536;47.128;8.746;2023-12-20T10:20:36;1.58;;;0.85;;
46777;SDS011;32536;47.128;8.746;2023-12-20T10:23:03;1.38;;;0.90;;
46777;SDS011;32536;47.128;8.746;2023-12-20T10:25:30;1.95;;;1.13;;
46777;SDS011;32536;47.128;8.746;2023-12-20T10:28:13;1.13;;;0.80;;
46777;SDS011;32536;47.128;8.746;2023-12-20T10:30:44;1.38;;;1.08;;
46777;SDS011;32536;47.128;8.746;2023-12-20T10:33:11;1.15;;;1.02;;
46777;SDS011;32536;47.128;8.746;2023-12-20T10:35:38;1.48;;;1.15;;
46777;SDS011;32536;47.128;8.746;2023-12-20T10:38:06;1.33;;;1.17;;
46777;SDS011;32536;47.128;8.746;2023-12-20T10:40:34;1.67;;;1.25;;
46777;SDS011;32536;47.128;8.746;2023-12-20T10:43:02;2.25;;;1.30;;
46777;SDS011;32536;47.128;8.746;2023-12-20T10:45:30;1.63;;;1.05;;
46777;SDS011;32536;47.128;8.746;2023-12-20T10:47:57;1.50;;;1.13;;
46777;SDS011;32536;47.128;8.746;2023-12-20T10:50:27;1.88;;;1.23;;
46777;SDS011;32536;47.128;8.746;2023-12-20T10:52:55;1.42;;;0.77;;
46777;SDS011;32536;47.128;8.746;2023-12-20T10:55:23;1.40;;;0.88;;
46777;SDS011;32536;47.128;8.746;2023-12-20T10:57:51;1.52;;;1.23;;
46777;SDS011;32536;47.128;8.746;2023-12-20T11:00:20;1.77;;;1.40;;
46777;SDS011;32536;47.128;8.746;2023-12-20T11:02:49;1.05;;;0.82;;
46777;SDS011;32536;47.128;8.746;2023-12-20T11:05:19;1.88;;;1.42;;
46777;SDS011;32536;47.128;8.746;2023-12-20T11:08:01;2.50;;;2.17;;
46777;SDS011;32536;47.128;8.746;2023-12-20T11:10:43;2.03;;;1.50;;
46777;SDS011;32536;47.128;8.746;2023-12-20T11:13:55;3.22;;;1.10;;
46777;SDS011;32536;47.128;8.746;2023-12-20T11:16:38;1.77;;;1.25;;
46777;SDS011;32536;47.128;8.746;2023-12-20T11:19:07;1.60;;;0.90;;
46777;SDS011;32536;47.128;8.746;2023-12-20T11:21:34;1.27;;;1.10;;
46777;SDS011;32536;47.128;8.746;2023-12-20T11:24:01;2.33;;;1.10;;
46777;SDS011;32536;47.128;8.746;2023-12-20T11:26:30;2.97;;;1.38;;
46777;SDS011;32536;47.128;8.746;2023-12-20T11:29:43;2.10;;;1.08;;
46777;SDS011;32536;47.128;8.746;2023-12-20T11:32:01;1.98;;;1.50;;
46777;SDS011;32536;47.128;8.746;2023-12-20T11:34:51;1.92;;;1.23;;
46777;SDS011;32536;47.128;8.746;2023-12-20T11:37:40;1.30;;;1.00;;
46777;SDS011;32536;47.128;8.746;2023-12-20T11:40:17;1.48;;;1.08;;
46777;SDS011;32536;47.128;8.746;2023-12-20T11:42:45;1.58;;;1.27;;
46777;SDS011;32536;47.128;8.746;2023-12-20T11:45:16;2.38;;;1.55;;
46777;SDS011;32536;47.128;8.746;2023-12-20T11:47:48;2.70;;;1.33;;
46777;SDS011;32536;47.128;8.746;2023-12-20T11:50:19;1.58;;;1.20;;
46777;SDS011;32536;47.128;8.746;2023-12-20T11:52:48;2.55;;;1.63;;
46777;SDS011;32536;47.128;8.746;2023-12-20T11:55:17;5.22;;;1.73;;
46777;SDS011;32536;47.128;8.746;2023-12-20T11:57:44;1.85;;;0.85;;
46777;SDS011;32536;47.128;8.746;2023-12-20T12:00:11;6.57;;;2.65;;
46777;SDS011;32536;47.128;8.746;2023-12-20T12:02:40;3.30;;;1.65;;
46777;SDS011;32536;47.128;8.746;2023-12-20T12:05:07;3.15;;;1.65;;
46777;SDS011;32536;47.128;8.746;2023-12-20T12:07:34;2.63;;;1.50;;
46777;SDS011;32536;47.128;8.746;2023-12-20T12:10:01;1.75;;;1.42;;
46777;SDS011;32536;47.128;8.746;2023-12-20T12:12:31;2.65;;;1.35;;
46777;SDS011;32536;47.128;8.746;2023-12-20T12:14:58;1.92;;;1.48;;
46777;SDS011;32536;47.128;8.746;2023-12-20T12:17:28;1.25;;;1.05;;
46777;SDS011;32536;47.128;8.746;2023-12-20T12:20:05;1.50;;;1.33;;
46777;SDS011;32536;47.128;8.746;2023-12-20T12:22:33;1.83;;;1.55;;
46777;SDS011;32536;47.128;8.746;2023-12-20T12:25:11;1.88;;;1.05;;
46777;SDS011;32536;47.128;8.746;2023-12-20T12:27:40;4.65;;;1.63;;
46777;SDS011;32536;47.128;8.746;2023-12-20T12:30:08;1.25;;;1.15;;
46777;SDS011;32536;47.128;8.746;2023-12-20T12:32:35;1.33;;;1.23;;
46777;SDS011;32536;47.128;8.746;2023-12-20T12:35:03;2.03;;;1.38;;
46777;SDS011;32536;47.128;8.746;2023-12-20T12:37:37;2.13;;;1.40;;
46777;SDS011;32536;47.128;8.746;2023-12-20T12:40:09;1.48;;;1.15;;
46777;SDS011;32536;47.128;8.746;2023-12-20T12:42:42;0.80;;;0.68;;
46777;SDS011;32536;47.128;8.746;2023-12-20T12:45:10;1.52;;;1.42;;
46777;SDS011;32536;47.128;8.746;2023-12-20T12:47:37;1.63;;;0.98;;
46777;SDS011;32536;47.128;8.746;2023-12-20T12:50:05;1.55;;;1.45;;
46777;SDS011;32536;47.128;8.746;2023-12-20T12:52:32;1.55;;;1.45;;
46777;SDS011;32536;47.128;8.746;2023-12-20T12:55:00;1.27;;;1.15;;
46777;SDS011;32536;47.128;8.746;2023-12-20T12:57:28;1.25;;;1.05;;
46777;SDS011;32536;47.128;8.746;2023-12-20T12:59:55;1.23;;;1.00;;
46777;SDS011;32536;47.128;8.746;2023-12-20T13:02:24;1.48;;;1.23;;
46777;SDS011;32536;47.128;8.746;2023-12-20T13:04:51;1.20;;;1.00;;
46777;SDS011;32536;47.128;8.746;2023-12-20T13:07:17;1.35;;;1.08;;
46777;SDS011;32536;47.128;8.746;2023-12-20T13:09:44;1.52;;;1.23;;
46777;SDS011;32536;47.128;8.746;2023-12-20T13:12:11;1.45;;;1.15;;
46777;SDS011;32536;47.128;8.746;2023-12-20T13:14:38;0.98;;;0.80;;
46777;SDS011;32536;47.128;8.746;2023-12-20T13:19:59;1.20;;;0.90;;
46777;SDS011;32536;47.128;8.746;2023-12-20T13:22:26;2.10;;;1.90;;
46777;SDS011;32536;47.128;8.746;2023-12-20T13:24:53;2.10;;;1.25;;
46777;SDS011;32536;47.128;8.746;2023-12-20T13:27:20;1.50;;;1.10;;
46777;SDS011;32536;47.128;8.746;2023-12-20T13:29:47;2.08;;;1.42;;
46777;SDS011;32536;47.128;8.746;2023-12-20T13:32:13;1.20;;;0.93;;
46777;SDS011;32536;47.128;8.746;2023-12-20T13:34:40;1.33;;;0.98;;
46777;SDS011;32536;47.128;8.746;2023-12-20T13:37:07;1.65;;;1.30;;
46777;SDS011;32536;47.128;8.746;2023-12-20T13:39:34;2.92;;;1.85;;
46777;SDS011;32536;47.128;8.746;2023-12-20T13:42:00;2.58;;;2.22;;
46777;SDS011;32536;47.128;8.746;2023-12-20T13:44:27;2.30;;;1.42;;
46777;SDS011;32536;47.128;8.746;2023-12-20T13:46:54;3.28;;;2.13;;
46777;SDS011;32536;47.128;8.746;2023-12-20T13:49:21;1.73;;;1.35;;
46777;SDS011;32536;47.128;8.746;2023-12-20T13:51:51;1.95;;;0.70;;
46777;SDS011;32536;47.128;8.746;2023-12-20T13:54:20;4.97;;;2.47;;
46777;SDS011;32536;47.128;8.746;2023-12-20T13:56:47;2.63;;;1.52;;
46777;SDS011;32536;47.128;8.746;2023-12-20T13:59:14;2.65;;;1.10;;
46777;SDS011;32536;47.128;8.746;2023-12-20T14:01:41;2.13;;;1.17;;
46777;SDS011;32536;47.128;8.746;2023-12-20T14:04:08;1.60;;;0.90;;
46777;SDS011;32536;47.128;8.746;2023-12-20T14:06:36;3.88;;;2.13;;
46777;SDS011;32536;47.128;8.746;2023-12-20T14:09:03;2.72;;;1.63;;
46777;SDS011;32536;47.128;8.746;2023-12-20T14:11:30;2.55;;;1.38;;
46777;SDS011;32536;47.128;8.746;2023-12-20T14:13:57;1.92;;;1.17;;
46777;SDS011;32536;47.128;8.746;2023-12-20T14:16:24;2.38;;;1.50;;
46777;SDS011;32536;47.128;8.746;2023-12-20T14:18:51;1.73;;;1.15;;
46777;SDS011;32536;47.128;8.746;2023-12-20T14:21:18;1.73;;;1.45;;
46777;SDS011;32536;47.128;8.746;2023-12-20T14:23:45;2.38;;;1.17;;
46777;SDS011;32536;47.128;8.746;2023-12-20T14:26:12;2.20;;;1.33;;
46777;SDS011;32536;47.128;8.746;2023-12-20T14:28:41;2.92;;;1.58;;
46777;SDS011;32536;47.128;8.746;2023-12-20T14:31:08;1.63;;;1.10;;
46777;SDS011;32536;47.128;8.746;2023-12-20T14:33:36;1.75;;;0.88;;
46777;SDS011;32536;47.128;8.746;2023-12-20T14:36:04;1.33;;;0.90;;
46777;SDS011;32536;47.128;8.746;2023-12-20T14:38:32;1.83;;;1.60;;
46777;SDS011;32536;47.128;8.746;2023-12-20T14:43:44;1.65;;;0.98;;
46777;SDS011;32536;47.128;8.746;2023-12-20T14:46:12;2.60;;;1.27;;
46777;SDS011;32536;47.128;8.746;2023-12-20T14:48:39;1.58;;;1.35;;
46777;SDS011;32536;47.128;8.746;2023-12-20T14:51:06;1.33;;;1.15;;
46777;SDS011;32536;47.128;8.746;2023-12-20T14:53:32;3.92;;;1.92;;
46777;SDS011;32536;47.128;8.746;2023-12-20T14:56:01;3.55;;;1.60;;
46777;SDS011;32536;47.128;8.746;2023-12-20T14:58:31;2.85;;;1.48;;